sensor_id;sensor_type;location;lat;lon;timestamp;pressure;altitude;pressure_sealevel;temperature;humidity
5872;BME280;2962;51.312;7.378;2023-02-16T00:01:25;98232.78;;;3.39;100.00
5872;BME280;2962;51.312;7.378;2023-02-16T00:03:52;98236.19;;;3.31;100.00
5872;BME280;2962;51.312;7.378;2023-02-16T00:06:18;98236.66;;;3.33;100.00
5872;BME280;2962;51.312;7.378;2023-02-16T00:08:48;98226.59;;;3.25;100.00
5872;BME280;2962;51.312;7.378;2023-02-16T00:14:13;98223.31;;;3.28;100.00
5872;BME280;2962;51.312;7.378;2023-02-16T00:16:38;98226.00;;;3.28;100.00
5872;BME280;2962;51.312;7.378;2023-02-16T00:19:22;98233.88;;;3.25;100.00
5872;BME280;2962;51.312;7.378;2023-02-16T00:21:50;98233.19;;;3.19;100.00
5872;BME280;2962;51.312;7.378;2023-02-16T00:24:16;98235.97;;;3.14;100.00
5872;BME280;2962;51.312;7.378;2023-02-16T00:26:41;98228.88;;;3.18;100.00
5872;BME280;2962;51.312;7.378;2023-02-16T00:29:13;98241.34;;;3.14;100.00
5872;BME280;2962;51.312;7.378;2023-02-16T00:31:39;98237.28;;;3.16;100.00
5872;BME280;2962;51.312;7.378;2023-02-16T00:34:23;98227.50;;;3.21;100.00
5872;BME280;2962;51.312;7.378;2023-02-16T00:36:49;98224.59;;;3.17;100.00
5872;BME280;2962;51.312;7.378;2023-02-16T00:39:14;98215.22;;;3.14;100.00
5872;BME280;2962;51.312;7.378;2023-02-16T00:41:39;98222.31;;;3.24;100.00
5872;BME280;2962;51.312;7.378;2023-02-16T00:44:17;98223.81;;;3.16;100.00
5872;BME280;2962;51.312;7.378;2023-02-16T00:46:44;98214.22;;;3.10;100.00
5872;BME280;2962;51.312;7.378;2023-02-16T00:49:17;98213.75;;;3.08;100.00
5872;BME280;2962;51.312;7.378;2023-02-16T00:51:43;98206.47;;;3.09;100.00
5872;BME280;2962;51.312;7.378;2023-02-16T00:54:08;98202.66;;;3.10;100.00
5872;BME280;2962;51.312;7.378;2023-02-16T00:56:34;98213.84;;;3.17;100.00
5872;BME280;2962;51.312;7.378;2023-02-16T00:59:01;98207.47;;;3.13;100.00
5872;BME280;2962;51.312;7.378;2023-02-16T01:01:30;98209.06;;;3.14;100.00
5872;BME280;2962;51.312;7.378;2023-02-16T01:03:59;98198.19;;;3.05;100.00
5872;BME280;2962;51.312;7.378;2023-02-16T01:06:25;98205.69;;;3.08;100.00
5872;BME280;2962;51.312;7.378;2023-02-16T01:09:17;98209.16;;;3.09;100.00
5872;BME280;2962;51.312;7.378;2023-02-16T01:12:06;98202.97;;;2.94;100.00
5872;BME280;2962;51.312;7.378;2023-02-16T01:14:32;98214.84;;;2.93;100.00
5872;BME280;2962;51.312;7.378;2023-02-16T01:16:58;98216.94;;;2.97;100.00
5872;BME280;2962;51.312;7.378;2023-02-16T01:19:23;98208.94;;;2.91;100.00
5872;BME280;2962;51.312;7.378;2023-02-16T01:21:49;98207.06;;;2.92;100.00
5872;BME280;2962;51.312;7.378;2023-02-16T01:24:14;98205.78;;;2.89;100.00
5872;BME280;2962;51.312;7.378;2023-02-16T01:26:43;98212.56;;;2.87;100.00
5872;BME280;2962;51.312;7.378;2023-02-16T01:29:19;98213.75;;;2.81;100.00
5872;BME280;2962;51.312;7.378;2023-02-16T01:31:45;98204.75;;;2.72;100.00
5872;BME280;2962;51.312;7.378;2023-02-16T01:34:10;98210.88;;;2.77;100.00
5872;BME280;2962;51.312;7.378;2023-02-16T01:36:41;98204.38;;;2.78;100.00
5872;BME280;2962;51.312;7.378;2023-02-16T01:39:07;98202.47;;;2.79;100.00
5872;BME280;2962;51.312;7.378;2023-02-16T01:42:09;98190.91;;;2.92;100.00
5872;BME280;2962;51.312;7.378;2023-02-16T01:44:49;98196.09;;;3.02;100.00
5872;BME280;2962;51.312;7.378;2023-02-16T01:49:40;98189.59;;;3.03;100.00
5872;BME280;2962;51.312;7.378;2023-02-16T01:54:48;98186.22;;;2.98;100.00
5872;BME280;2962;51.312;7.378;2023-02-16T01:57:38;98185.03;;;2.90;100.00
5872;BME280;2962;51.312;7.378;2023-02-16T02:00:26;98182.66;;;2.88;100.00
5872;BME280;2962;51.312;7.378;2023-02-16T02:02:55;98181.84;;;2.88;100.00
5872;BME280;2962;51.312;7.378;2023-02-16T02:05:42;98173.09;;;2.82;100.00
5872;BME280;2962;51.312;7.378;2023-02-16T02:11:07;98177.88;;;2.85;100.00
5872;BME280;2962;51.312;7.378;2023-02-16T02:13:44;98183.06;;;2.82;100.00
5872;BME280;2962;51.312;7.378;2023-02-16T02:16:15;98177.88;;;2.85;100.00
5872;BME280;2962;51.312;7.378;2023-02-16T02:18:41;98180.28;;;2.73;100.00
5872;BME280;2962;51.312;7.378;2023-02-16T02:27:09;98167.50;;;2.79;100.00
5872;BME280;2962;51.312;7.378;2023-02-16T02:35:03;98157.13;;;2.72;100.00
5872;BME280;2962;51.312;7.378;2023-02-16T02:40:45;98158.81;;;2.96;100.00
5872;BME280;2962;51.312;7.378;2023-02-16T02:45:44;98170.19;;;2.92;100.00
5872;BME280;2962;51.312;7.378;2023-02-16T02:48:10;98167.00;;;2.90;100.00
5872;BME280;2962;51.312;7.378;2023-02-16T02:50:47;98171.28;;;2.91;100.00
5872;BME280;2962;51.312;7.378;2023-02-16T02:53:34;98156.75;;;2.92;100.00
5872;BME280;2962;51.312;7.378;2023-02-16T02:56:01;98167.88;;;3.00;100.00
5872;BME280;2962;51.312;7.378;2023-02-16T02:58:49;98162.09;;;3.06;100.00
5872;BME280;2962;51.312;7.378;2023-02-16T03:01:37;98135.88;;;2.98;100.00
5872;BME280;2962;51.312;7.378;2023-02-16T03:04:05;98149.75;;;2.91;100.00
5872;BME280;2962;51.312;7.378;2023-02-16T03:06:35;98145.66;;;2.94;100.00
5872;BME280;2962;51.312;7.378;2023-02-16T03:09:08;98155.31;;;2.95;100.00
5872;BME280;2962;51.312;7.378;2023-02-16T03:11:35;98146.38;;;2.86;100.00
5872;BME280;2962;51.312;7.378;2023-02-16T03:14:33;98142.69;;;2.82;100.00
5872;BME280;2962;51.312;7.378;2023-02-16T03:17:02;98131.00;;;2.73;100.00
5872;BME280;2962;51.312;7.378;2023-02-16T03:19:49;98137.69;;;2.75;100.00
5872;BME280;2962;51.312;7.378;2023-02-16T03:22:35;98140.19;;;2.72;100.00
5872;BME280;2962;51.312;7.378;2023-02-16T03:25:22;98138.59;;;2.71;100.00
5872;BME280;2962;51.312;7.378;2023-02-16T03:28:08;98129.75;;;2.70;100.00
5872;BME280;2962;51.312;7.378;2023-02-16T03:30:54;98124.38;;;2.70;100.00
5872;BME280;2962;51.312;7.378;2023-02-16T03:33:20;98134.31;;;2.69;100.00
5872;BME280;2962;51.312;7.378;2023-02-16T03:35:46;98133.81;;;2.67;100.00
5872;BME280;2962;51.312;7.378;2023-02-16T03:38:12;98126.47;;;2.73;100.00
5872;BME280;2962;51.312;7.378;2023-02-16T03:40:38;98118.88;;;2.61;100.00
5872;BME280;2962;51.312;7.378;2023-02-16T03:43:06;98125.25;;;2.79;100.00
5872;BME280;2962;51.312;7.378;2023-02-16T03:45:34;98130.72;;;2.74;100.00
5872;BME280;2962;51.312;7.378;2023-02-16T03:48:00;98121.16;;;2.82;100.00
5872;BME280;2962;51.312;7.378;2023-02-16T03:50:26;98101.13;;;2.74;100.00
5872;BME280;2962;51.312;7.378;2023-02-16T03:52:52;98111.06;;;2.87;100.00
5872;BME280;2962;51.312;7.378;2023-02-16T03:55:30;98117.69;;;2.81;100.00
5872;BME280;2962;51.312;7.378;2023-02-16T03:57:56;98113.28;;;2.72;100.00
5872;BME280;2962;51.312;7.378;2023-02-16T04:00:21;98119.25;;;2.82;100.00
5872;BME280;2962;51.312;7.378;2023-02-16T04:02:46;98116.38;;;2.79;100.00
5872;BME280;2962;51.312;7.378;2023-02-16T04:05:12;98119.25;;;2.82;100.00
5872;BME280;2962;51.312;7.378;2023-02-16T04:07:37;98114.19;;;2.81;100.00
5872;BME280;2962;51.312;7.378;2023-02-16T04:10:02;98121.44;;;2.94;100.00
5872;BME280;2962;51.312;7.378;2023-02-16T04:12:28;98129.81;;;2.92;100.00
5872;BME280;2962;51.312;7.378;2023-02-16T04:15:08;98126.75;;;2.85;100.00
5872;BME280;2962;51.312;7.378;2023-02-16T04:17:34;98115.66;;;2.87;100.00
5872;BME280;2962;51.312;7.378;2023-02-16T04:19:59;98122.44;;;2.84;100.00
5872;BME280;2962;51.312;7.378;2023-02-16T04:22:25;98129.31;;;2.77;100.00
5872;BME280;2962;51.312;7.378;2023-02-16T04:24:50;98116.88;;;2.81;100.00
5872;BME280;2962;51.312;7.378;2023-02-16T04:27:15;98118.56;;;2.77;100.00
5872;BME280;2962;51.312;7.378;2023-02-16T04:29:41;98118.28;;;2.78;100.00
5872;BME280;2962;51.312;7.378;2023-02-16T04:32:07;98115.69;;;2.73;100.00
5872;BME280;2962;51.312;7.378;2023-02-16T04:34:32;98137.19;;;2.87;100.00
5872;BME280;2962;51.312;7.378;2023-02-16T04:36:58;98134.31;;;2.83;100.00
5872;BME280;2962;51.312;7.378;2023-02-16T04:39:23;98129.22;;;2.82;100.00
5872;BME280;2962;51.312;7.378;2023-02-16T04:41:48;98127.34;;;2.68;100.00
5872;BME280;2962;51.312;7.378;2023-02-16T04:44:13;98126.94;;;2.75;100.00
5872;BME280;2962;51.312;7.378;2023-02-16T04:46:39;98120.56;;;2.71;100.00
5872;BME280;2962;51.312;7.378;2023-02-16T04:49:04;98121.06;;;2.73;100.00
5872;BME280;2962;51.312;7.378;2023-02-16T04:51:29;98125.84;;;2.76;100.00
5872;BME280;2962;51.312;7.378;2023-02-16T04:53:54;98118.06;;;2.75;100.00
5872;BME280;2962;51.312;7.378;2023-02-16T04:56:20;98113.09;;;2.82;100.00
5872;BME280;2962;51.312;7.378;2023-02-16T04:58:45;98110.78;;;2.75;100.00
5872;BME280;2962;51.312;7.378;2023-02-16T05:01:21;98106.53;;;2.74;100.00
5872;BME280;2962;51.312;7.378;2023-02-16T05:03:47;98104.72;;;2.69;100.00
5872;BME280;2962;51.312;7.378;2023-02-16T05:06:13;98112.09;;;2.64;100.00
5872;BME280;2962;51.312;7.378;2023-02-16T05:08:38;98106.22;;;2.62;100.00
5872;BME280;2962;51.312;7.378;2023-02-16T05:11:03;98116.78;;;2.58;100.00
5872;BME280;2962;51.312;7.378;2023-02-16T05:13:47;98105.63;;;2.51;100.00
5872;BME280;2962;51.312;7.378;2023-02-16T05:16:32;98103.72;;;2.52;100.00
5872;BME280;2962;51.312;7.378;2023-02-16T05:18:57;98119.28;;;2.55;100.00
5872;BME280;2962;51.312;7.378;2023-02-16T05:21:22;98109.72;;;2.49;100.00
5872;BME280;2962;51.312;7.378;2023-02-16T05:23:58;98094.59;;;2.39;100.00
5872;BME280;2962;51.312;7.378;2023-02-16T05:26:23;98115.69;;;2.45;100.00
5872;BME280;2962;51.312;7.378;2023-02-16T05:28:48;98111.41;;;2.44;100.00
5872;BME280;2962;51.312;7.378;2023-02-16T05:31:14;98121.69;;;2.42;100.00
5872;BME280;2962;51.312;7.378;2023-02-16T05:33:39;98115.31;;;2.38;100.00
5872;BME280;2962;51.312;7.378;2023-02-16T05:36:04;98118.47;;;2.40;100.00
5872;BME280;2962;51.312;7.378;2023-02-16T05:38:30;98114.78;;;2.36;100.00
5872;BME280;2962;51.312;7.378;2023-02-16T05:40:57;98112.19;;;2.31;100.00
5872;BME280;2962;51.312;7.378;2023-02-16T05:43:23;98117.28;;;2.33;100.00
5872;BME280;2962;51.312;7.378;2023-02-16T05:45:48;98121.34;;;2.30;100.00
5872;BME280;2962;51.312;7.378;2023-02-16T05:48:13;98120.53;;;2.30;100.00
5872;BME280;2962;51.312;7.378;2023-02-16T05:50:38;98123.81;;;2.27;100.00
5872;BME280;2962;51.312;7.378;2023-02-16T05:53:04;98131.63;;;2.28;100.00
5872;BME280;2962;51.312;7.378;2023-02-16T05:55:29;98127.34;;;2.27;100.00
5872;BME280;2962;51.312;7.378;2023-02-16T05:57:54;98126.63;;;2.22;100.00
5872;BME280;2962;51.312;7.378;2023-02-16T06:00:20;98122.63;;;2.19;100.00
5872;BME280;2962;51.312;7.378;2023-02-16T06:02:45;98115.56;;;2.09;100.00
5872;BME280;2962;51.312;7.378;2023-02-16T06:05:10;98123.25;;;2.16;100.00
5872;BME280;2962;51.312;7.378;2023-02-16T06:07:36;98117.25;;;2.19;100.00
5872;BME280;2962;51.312;7.378;2023-02-16T06:10:02;98098.75;;;2.17;100.00
5872;BME280;2962;51.312;7.378;2023-02-16T06:12:27;98113.69;;;2.24;100.00
5872;BME280;2962;51.312;7.378;2023-02-16T06:14:52;98125.03;;;2.20;100.00
5872;BME280;2962;51.312;7.378;2023-02-16T06:17:20;98132.31;;;2.20;100.00
5872;BME280;2962;51.312;7.378;2023-02-16T06:19:45;98129.09;;;2.18;100.00
5872;BME280;2962;51.312;7.378;2023-02-16T06:22:10;98126.13;;;2.19;100.00
5872;BME280;2962;51.312;7.378;2023-02-16T06:24:35;98123.50;;;2.14;100.00
5872;BME280;2962;51.312;7.378;2023-02-16T06:27:02;98137.53;;;2.11;100.00
5872;BME280;2962;51.312;7.378;2023-02-16T06:29:28;98131.16;;;2.07;100.00
5872;BME280;2962;51.312;7.378;2023-02-16T06:31:53;98126.41;;;2.04;100.00
5872;BME280;2962;51.312;7.378;2023-02-16T06:34:18;98130.16;;;2.03;100.00
5872;BME280;2962;51.312;7.378;2023-02-16T06:36:44;98126.88;;;2.06;100.00
5872;BME280;2962;51.312;7.378;2023-02-16T06:39:09;98127.19;;;2.05;100.00
5872;BME280;2962;51.312;7.378;2023-02-16T06:41:34;98120.72;;;2.06;100.00
5872;BME280;2962;51.312;7.378;2023-02-16T06:44:06;98124.50;;;2.05;100.00
5872;BME280;2962;51.312;7.378;2023-02-16T06:46:32;98130.19;;;2.17;100.00
5872;BME280;2962;51.312;7.378;2023-02-16T06:48:58;98119.44;;;2.17;100.00
5872;BME280;2962;51.312;7.378;2023-02-16T06:51:23;98117.47;;;2.36;100.00
5872;BME280;2962;51.312;7.378;2023-02-16T06:53:49;98125.22;;;2.38;100.00
5872;BME280;2962;51.312;7.378;2023-02-16T06:56:14;98125.44;;;2.41;100.00
5872;BME280;2962;51.312;7.378;2023-02-16T06:58:39;98123.25;;;2.43;100.00
5872;BME280;2962;51.312;7.378;2023-02-16T07:01:04;98107.53;;;2.51;100.00
5872;BME280;2962;51.312;7.378;2023-02-16T07:03:30;98121.66;;;2.70;100.00
5872;BME280;2962;51.312;7.378;2023-02-16T07:05:55;98113.69;;;2.65;100.00
5872;BME280;2962;51.312;7.378;2023-02-16T07:08:20;98108.81;;;2.67;100.00
5872;BME280;2962;51.312;7.378;2023-02-16T07:10:46;98112.69;;;2.75;100.00
5872;BME280;2962;51.312;7.378;2023-02-16T07:13:11;98111.72;;;3.07;100.00
5872;BME280;2962;51.312;7.378;2023-02-16T07:15:37;98124.09;;;3.44;100.00
5872;BME280;2962;51.312;7.378;2023-02-16T07:18:02;98111.56;;;3.39;100.00
5872;BME280;2962;51.312;7.378;2023-02-16T07:20:28;98119.84;;;3.29;100.00
5872;BME280;2962;51.312;7.378;2023-02-16T07:22:53;98115.72;;;3.23;100.00
5872;BME280;2962;51.312;7.378;2023-02-16T07:25:18;98123.47;;;3.25;100.00
5872;BME280;2962;51.312;7.378;2023-02-16T07:27:44;98127.56;;;3.22;100.00
5872;BME280;2962;51.312;7.378;2023-02-16T07:30:10;98130.94;;;3.28;100.00
5872;BME280;2962;51.312;7.378;2023-02-16T07:32:36;98133.72;;;3.23;100.00
5872;BME280;2962;51.312;7.378;2023-02-16T07:35:02;98111.72;;;3.21;100.00
5872;BME280;2962;51.312;7.378;2023-02-16T07:37:27;98111.41;;;3.22;100.00
5872;BME280;2962;51.312;7.378;2023-02-16T07:39:53;98106.81;;;3.23;100.00
5872;BME280;2962;51.312;7.378;2023-02-16T07:42:19;98116.25;;;3.34;100.00
5872;BME280;2962;51.312;7.378;2023-02-16T07:44:44;98132.59;;;3.37;100.00
5872;BME280;2962;51.312;7.378;2023-02-16T07:47:10;98135.19;;;3.42;100.00
5872;BME280;2962;51.312;7.378;2023-02-16T07:49:37;98133.28;;;3.43;100.00
5872;BME280;2962;51.312;7.378;2023-02-16T07:52:02;98139.84;;;3.51;100.00
5872;BME280;2962;51.312;7.378;2023-02-16T07:54:30;98125.78;;;3.54;100.00
5872;BME280;2962;51.312;7.378;2023-02-16T07:56:55;98128.22;;;3.64;100.00
5872;BME280;2962;51.312;7.378;2023-02-16T07:59:20;98118.88;;;3.61;100.00
5872;BME280;2962;51.312;7.378;2023-02-16T08:01:45;98115.72;;;3.68;100.00
5872;BME280;2962;51.312;7.378;2023-02-16T08:04:11;98124.50;;;3.74;100.00
5872;BME280;2962;51.312;7.378;2023-02-16T08:06:36;98121.94;;;4.00;100.00
5872;BME280;2962;51.312;7.378;2023-02-16T08:09:01;98128.94;;;4.01;100.00
5872;BME280;2962;51.312;7.378;2023-02-16T08:11:27;98132.25;;;3.98;100.00
5872;BME280;2962;51.312;7.378;2023-02-16T08:13:52;98130.09;;;4.08;100.00
5872;BME280;2962;51.312;7.378;2023-02-16T08:16:20;98125.38;;;4.14;100.00
5872;BME280;2962;51.312;7.378;2023-02-16T08:18:46;98120.94;;;4.18;100.00
5872;BME280;2962;51.312;7.378;2023-02-16T08:21:14;98126.50;;;4.22;100.00
5872;BME280;2962;51.312;7.378;2023-02-16T08:23:44;98129.25;;;4.30;100.00
5872;BME280;2962;51.312;7.378;2023-02-16T08:26:12;98129.94;;;4.36;100.00
5872;BME280;2962;51.312;7.378;2023-02-16T08:28:38;98128.06;;;4.45;100.00
5872;BME280;2962;51.312;7.378;2023-02-16T08:31:14;98124.75;;;4.57;100.00
5872;BME280;2962;51.312;7.378;2023-02-16T08:33:40;98129.06;;;4.58;100.00
5872;BME280;2962;51.312;7.378;2023-02-16T08:36:05;98125.59;;;4.66;100.00
5872;BME280;2962;51.312;7.378;2023-02-16T08:38:35;98129.09;;;4.67;100.00
5872;BME280;2962;51.312;7.378;2023-02-16T08:41:00;98106.22;;;4.64;100.00
5872;BME280;2962;51.312;7.378;2023-02-16T08:43:25;98124.69;;;4.79;100.00
5872;BME280;2962;51.312;7.378;2023-02-16T08:45:51;98112.75;;;4.72;100.00
5872;BME280;2962;51.312;7.378;2023-02-16T08:48:17;98126.13;;;4.77;100.00
5872;BME280;2962;51.312;7.378;2023-02-16T08:50:46;98110.22;;;4.75;100.00
5872;BME280;2962;51.312;7.378;2023-02-16T08:53:18;98118.94;;;4.72;100.00
5872;BME280;2962;51.312;7.378;2023-02-16T08:55:53;98118.75;;;4.69;100.00
5872;BME280;2962;51.312;7.378;2023-02-16T08:58:19;98116.25;;;4.72;100.00
5872;BME280;2962;51.312;7.378;2023-02-16T09:00:45;98131.19;;;4.70;100.00
5872;BME280;2962;51.312;7.378;2023-02-16T09:03:11;98121.63;;;4.72;100.00
5872;BME280;2962;51.312;7.378;2023-02-16T09:05:37;98116.72;;;4.74;100.00
5872;BME280;2962;51.312;7.378;2023-02-16T09:08:02;98144.41;;;4.88;100.00
5872;BME280;2962;51.312;7.378;2023-02-16T09:10:28;98141.88;;;4.92;100.00
5872;BME280;2962;51.312;7.378;2023-02-16T09:12:54;98132.97;;;4.92;100.00
5872;BME280;2962;51.312;7.378;2023-02-16T09:15:19;98144.59;;;4.92;100.00
5872;BME280;2962;51.312;7.378;2023-02-16T09:17:45;98143.16;;;4.95;100.00
5872;BME280;2962;51.312;7.378;2023-02-16T09:20:11;98144.78;;;5.04;100.00
5872;BME280;2962;51.312;7.378;2023-02-16T09:22:36;98134.75;;;4.96;100.00
5872;BME280;2962;51.312;7.378;2023-02-16T09:25:02;98139.72;;;5.11;100.00
5872;BME280;2962;51.312;7.378;2023-02-16T09:27:27;98135.09;;;5.21;100.00
5872;BME280;2962;51.312;7.378;2023-02-16T09:29:52;98146.72;;;5.38;100.00
5872;BME280;2962;51.312;7.378;2023-02-16T09:32:18;98139.25;;;5.70;100.00
5872;BME280;2962;51.312;7.378;2023-02-16T09:34:43;98137.34;;;5.79;100.00
5872;BME280;2962;51.312;7.378;2023-02-16T09:37:09;98152.94;;;5.65;100.00
5872;BME280;2962;51.312;7.378;2023-02-16T09:39:35;98140.06;;;5.62;100.00
5872;BME280;2962;51.312;7.378;2023-02-16T09:42:05;98141.16;;;5.52;100.00
5872;BME280;2962;51.312;7.378;2023-02-16T09:44:44;98126.84;;;5.60;100.00
5872;BME280;2962;51.312;7.378;2023-02-16T09:47:26;98148.16;;;5.88;100.00
5872;BME280;2962;51.312;7.378;2023-02-16T09:50:01;98131.78;;;6.49;100.00
5872;BME280;2962;51.312;7.378;2023-02-16T09:52:34;98129.91;;;7.08;100.00
5872;BME280;2962;51.312;7.378;2023-02-16T09:55:05;98136.47;;;7.28;100.00
5872;BME280;2962;51.312;7.378;2023-02-16T10:00:08;98128.69;;;6.97;100.00
5872;BME280;2962;51.312;7.378;2023-02-16T10:05:42;98138.97;;;6.53;100.00
5872;BME280;2962;51.312;7.378;2023-02-16T10:08:13;98141.69;;;6.45;100.00
5872;BME280;2962;51.312;7.378;2023-02-16T10:10:42;98147.56;;;6.47;100.00
5872;BME280;2962;51.312;7.378;2023-02-16T10:13:18;98139.38;;;6.64;100.00
5872;BME280;2962;51.312;7.378;2023-02-16T10:15:45;98134.75;;;6.65;100.00
5872;BME280;2962;51.312;7.378;2023-02-16T10:18:27;98142.88;;;6.65;100.00
5872;BME280;2962;51.312;7.378;2023-02-16T10:20:56;98141.94;;;6.60;100.00
5872;BME280;2962;51.312;7.378;2023-02-16T10:23:40;98143.00;;;6.39;100.00
5872;BME280;2962;51.312;7.378;2023-02-16T10:28:54;98151.25;;;6.42;100.00
5872;BME280;2962;51.312;7.378;2023-02-16T10:31:28;98138.56;;;6.25;100.00
5872;BME280;2962;51.312;7.378;2023-02-16T10:41:49;98156.38;;;6.26;100.00
5872;BME280;2962;51.312;7.378;2023-02-16T10:44:25;98153.38;;;6.10;100.00
5872;BME280;2962;51.312;7.378;2023-02-16T10:46:59;98147.13;;;6.36;100.00
5872;BME280;2962;51.312;7.378;2023-02-16T10:49:26;98160.16;;;6.34;100.00
5872;BME280;2962;51.312;7.378;2023-02-16T10:51:54;98156.53;;;6.39;100.00
5872;BME280;2962;51.312;7.378;2023-02-16T10:54:28;98168.97;;;6.14;100.00
5872;BME280;2962;51.312;7.378;2023-02-16T10:56:57;98160.41;;;6.03;100.00
5872;BME280;2962;51.312;7.378;2023-02-16T10:59:30;98168.50;;;6.03;100.00
5872;BME280;2962;51.312;7.378;2023-02-16T11:01:59;98154.34;;;6.06;100.00
5872;BME280;2962;51.312;7.378;2023-02-16T11:07:11;98151.66;;;5.97;100.00
5872;BME280;2962;51.312;7.378;2023-02-16T11:09:37;98172.16;;;6.07;100.00
5872;BME280;2962;51.312;7.378;2023-02-16T11:14:39;98164.22;;;6.02;100.00
5872;BME280;2962;51.312;7.378;2023-02-16T11:17:12;98169.31;;;6.03;100.00
5872;BME280;2962;51.312;7.378;2023-02-16T11:19:47;98141.63;;;6.15;100.00
5872;BME280;2962;51.312;7.378;2023-02-16T11:22:36;98150.16;;;6.26;100.00
5872;BME280;2962;51.312;7.378;2023-02-16T11:27:59;98139.41;;;6.55;100.00
5872;BME280;2962;51.312;7.378;2023-02-16T11:30:37;98129.63;;;6.72;100.00
5872;BME280;2962;51.312;7.378;2023-02-16T11:33:20;98141.91;;;6.99;100.00
5872;BME280;2962;51.312;7.378;2023-02-16T11:35:46;98126.00;;;7.18;100.00
5872;BME280;2962;51.312;7.378;2023-02-16T11:38:31;98129.34;;;7.66;100.00
5872;BME280;2962;51.312;7.378;2023-02-16T11:40:58;98107.31;;;7.67;100.00
5872;BME280;2962;51.312;7.378;2023-02-16T11:43:26;98129.81;;;8.01;100.00
5872;BME280;2962;51.312;7.378;2023-02-16T11:48:36;98123.41;;;8.75;100.00
5872;BME280;2962;51.312;7.378;2023-02-16T11:51:06;98114.19;;;9.29;100.00
5872;BME280;2962;51.312;7.378;2023-02-16T11:53:33;98101.06;;;9.07;100.00
5872;BME280;2962;51.312;7.378;2023-02-16T11:56:10;98111.06;;;9.02;100.00
5872;BME280;2962;51.312;7.378;2023-02-16T11:58:39;98116.97;;;8.92;100.00
5872;BME280;2962;51.312;7.378;2023-02-16T12:01:17;98110.97;;;8.62;100.00
5872;BME280;2962;51.312;7.378;2023-02-16T12:07:12;98092.53;;;8.10;100.00
5872;BME280;2962;51.312;7.378;2023-02-16T12:10:07;98093.00;;;8.12;100.00
5872;BME280;2962;51.312;7.378;2023-02-16T12:12:55;98093.53;;;8.39;100.00
5872;BME280;2962;51.312;7.378;2023-02-16T12:15:29;98095.81;;;8.61;100.00
5872;BME280;2962;51.312;7.378;2023-02-16T12:29:07;98104.81;;;7.62;100.00
5872;BME280;2962;51.312;7.378;2023-02-16T12:31:45;98101.19;;;7.58;100.00
5872;BME280;2962;51.312;7.378;2023-02-16T12:34:36;98089.94;;;7.47;100.00
5872;BME280;2962;51.312;7.378;2023-02-16T12:37:10;98086.22;;;7.52;100.00
5872;BME280;2962;51.312;7.378;2023-02-16T12:44:49;98093.38;;;7.36;100.00
5872;BME280;2962;51.312;7.378;2023-02-16T12:47:28;98086.69;;;7.33;100.00
5872;BME280;2962;51.312;7.378;2023-02-16T12:50:14;98092.38;;;7.40;100.00
5872;BME280;2962;51.312;7.378;2023-02-16T13:00:43;98063.31;;;7.07;100.00
5872;BME280;2962;51.312;7.378;2023-02-16T13:03:38;98057.34;;;7.14;100.00
5872;BME280;2962;51.312;7.378;2023-02-16T13:08:40;98061.66;;;7.69;100.00
5872;BME280;2962;51.312;7.378;2023-02-16T13:11:20;98057.22;;;8.10;100.00
5872;BME280;2962;51.312;7.378;2023-02-16T13:13:47;98056.81;;;8.32;100.00
5872;BME280;2962;51.312;7.378;2023-02-16T13:18:43;98058.09;;;8.47;100.00
5872;BME280;2962;51.312;7.378;2023-02-16T13:21:45;98058.72;;;8.07;100.00
5872;BME280;2962;51.312;7.378;2023-02-16T13:24:26;98064.03;;;8.04;100.00
5872;BME280;2962;51.312;7.378;2023-02-16T13:32:24;98026.66;;;7.76;100.00
5872;BME280;2962;51.312;7.378;2023-02-16T13:35:03;98023.25;;;7.79;100.00
5872;BME280;2962;51.312;7.378;2023-02-16T13:41:05;98028.03;;;7.95;100.00
5872;BME280;2962;51.312;7.378;2023-02-16T13:43:41;98022.16;;;7.93;100.00
5872;BME280;2962;51.312;7.378;2023-02-16T13:46:26;98018.34;;;8.06;100.00
5872;BME280;2962;51.312;7.378;2023-02-16T13:48:52;98012.91;;;8.18;100.00
5872;BME280;2962;51.312;7.378;2023-02-16T13:51:22;98020.97;;;8.27;100.00
5872;BME280;2962;51.312;7.378;2023-02-16T13:53:51;98010.69;;;8.57;100.00
5872;BME280;2962;51.312;7.378;2023-02-16T13:58:57;97995.28;;;9.14;100.00
5872;BME280;2962;51.312;7.378;2023-02-16T14:03:58;97999.88;;;8.97;100.00
5872;BME280;2962;51.312;7.378;2023-02-16T14:19:38;97979.91;;;8.41;100.00
5872;BME280;2962;51.312;7.378;2023-02-16T14:22:10;97991.53;;;8.29;100.00
5872;BME280;2962;51.312;7.378;2023-02-16T14:24:37;97971.22;;;8.47;100.00
5872;BME280;2962;51.312;7.378;2023-02-16T14:27:05;97975.38;;;8.32;100.00
5872;BME280;2962;51.312;7.378;2023-02-16T14:29:53;97976.75;;;8.51;100.00
5872;BME280;2962;51.312;7.378;2023-02-16T14:32:24;97973.09;;;8.71;100.00
5872;BME280;2962;51.312;7.378;2023-02-16T14:35:13;97952.19;;;9.28;100.00
5872;BME280;2962;51.312;7.378;2023-02-16T14:40:49;97967.75;;;10.70;100.00
5872;BME280;2962;51.312;7.378;2023-02-16T14:43:33;97959.38;;;10.12;100.00
5872;BME280;2962;51.312;7.378;2023-02-16T14:49:36;97964.47;;;9.82;100.00
5872;BME280;2962;51.312;7.378;2023-02-16T15:00:41;97955.50;;;11.18;100.00
5872;BME280;2962;51.312;7.378;2023-02-16T15:03:40;97952.28;;;11.13;100.00
5872;BME280;2962;51.312;7.378;2023-02-16T15:06:06;97958.41;;;10.71;100.00
5872;BME280;2962;51.312;7.378;2023-02-16T15:08:37;97955.75;;;10.55;100.00
5872;BME280;2962;51.312;7.378;2023-02-16T15:13:35;97962.13;;;10.63;100.00
5872;BME280;2962;51.312;7.378;2023-02-16T15:16:02;97965.97;;;10.78;100.00
5872;BME280;2962;51.312;7.378;2023-02-16T15:18:35;97961.50;;;10.69;100.00
5872;BME280;2962;51.312;7.378;2023-02-16T15:21:02;97954.84;;;10.86;100.00
5872;BME280;2962;51.312;7.378;2023-02-16T15:23:33;97956.94;;;11.32;100.00
5872;BME280;2962;51.312;7.378;2023-02-16T15:26:05;97949.38;;;11.44;100.00
5872;BME280;2962;51.312;7.378;2023-02-16T15:28:39;97947.75;;;11.40;100.00
5872;BME280;2962;51.312;7.378;2023-02-16T15:31:16;97944.16;;;11.16;100.00
5872;BME280;2962;51.312;7.378;2023-02-16T15:33:55;97943.56;;;10.68;100.00
5872;BME280;2962;51.312;7.378;2023-02-16T15:36:23;97936.13;;;10.65;100.00
5872;BME280;2962;51.312;7.378;2023-02-16T15:38:57;97929.84;;;10.45;100.00
5872;BME280;2962;51.312;7.378;2023-02-16T15:43:56;97935.28;;;10.81;100.00
5872;BME280;2962;51.312;7.378;2023-02-16T15:46:33;97928.09;;;10.72;100.00
5872;BME280;2962;51.312;7.378;2023-02-16T15:49:29;97940.03;;;11.03;100.00
5872;BME280;2962;51.312;7.378;2023-02-16T15:51:58;97923.59;;;10.99;100.00
5872;BME280;2962;51.312;7.378;2023-02-16T15:54:26;97926.72;;;11.63;100.00